<?xml version="1.0" encoding="UTF-8"?><gpx creator="Wikiloc - http://www.wikiloc.com" version="1.1" xmlns="http://www.topografix.com/GPX/1/1" xmlns:xsi="http://www.w3.org/2001/XMLSchema-instance" xsi:schemaLocation="http://www.topografix.com/GPX/1/1 http://www.topografix.com/GPX/1/1/gpx.xsd"><wpt lat="39.209667" lon="-6.947550"><ele>392.0</ele><time>2015-07-02T21:38:47Z</time><name>Alcornoque El Abuelo</name><cmt></cmt><desc></desc></wpt><wpt lat="39.208390" lon="-6.957938"><ele>555.0</ele><time>2015-07-02T21:45:44Z</time><name>Observatorio Puerto del Centinela</name><cmt></cmt><desc></desc></wpt><wpt lat="39.215530" lon="-6.998509"><ele>419.0</ele><time>2015-07-02T21:48:58Z</time><name>Alburquerque</name><cmt></cmt><desc></desc></wpt><wpt lat="39.211490" lon="-6.951539"><ele>417.0</ele><time>2015-08-04T21:01:43Z</time><name>Tumba antropomorfa</name><cmt></cmt><desc></desc></wpt><wpt lat="39.211056" lon="-6.951199"><ele>416.0</ele><time>2015-08-04T21:02:46Z</time><name>Colmenas</name><cmt></cmt><desc></desc></wpt><trk><name>PR-BA 99 'Sierra Santa Lucia' (Alburquerque)</name><cmt></cmt><desc></desc><trkseg><trkpt lat="39.215521" lon="-6.998504"><ele>419.0</ele><time>2015-01-01T10:00:20Z</time></trkpt><trkpt lat="39.215445" lon="-6.998416"><ele>419.9</ele><time>2015-01-01T10:00:40Z</time></trkpt><trkpt lat="39.215345" lon="-6.998239"><ele>420.6</ele><time>2015-01-01T10:01:00Z</time></trkpt><trkpt lat="39.215275" lon="-6.998111"><ele>420.9</ele><time>2015-01-01T10:01:20Z</time></trkpt><trkpt lat="39.215125" lon="-6.997881"><ele>421.8</ele><time>2015-01-01T10:01:40Z</time></trkpt><trkpt lat="39.215096" lon="-6.997829"><ele>422.2</ele><time>2015-01-01T10:02:00Z</time></trkpt><trkpt lat="39.214965" lon="-6.997639"><ele>421.9</ele><time>2015-01-01T10:02:20Z</time></trkpt><trkpt lat="39.214941" lon="-6.997596"><ele>421.6</ele><time>2015-01-01T10:02:40Z</time></trkpt><trkpt lat="39.214926" lon="-6.997557"><ele>421.6</ele><time>2015-01-01T10:03:00Z</time></trkpt><trkpt lat="39.214891" lon="-6.997395"><ele>422.4</ele><time>2015-01-01T10:03:20Z</time></trkpt><trkpt lat="39.214878" lon="-6.997277"><ele>423.5</ele><time>2015-01-01T10:03:40Z</time></trkpt><trkpt lat="39.214883" lon="-6.997164"><ele>424.6</ele><time>2015-01-01T10:04:00Z</time></trkpt><trkpt lat="39.214893" lon="-6.997015"><ele>425.5</ele><time>2015-01-01T10:04:20Z</time></trkpt><trkpt lat="39.214905" lon="-6.996865"><ele>426.2</ele><time>2015-01-01T10:04:40Z</time></trkpt><trkpt lat="39.214916" lon="-6.996626"><ele>426.5</ele><time>2015-01-01T10:05:00Z</time></trkpt><trkpt lat="39.214914" lon="-6.996326"><ele>425.6</ele><time>2015-01-01T10:05:20Z</time></trkpt><trkpt lat="39.214917" lon="-6.995999"><ele>425.7</ele><time>2015-01-01T10:05:40Z</time></trkpt><trkpt lat="39.214905" lon="-6.995718"><ele>428.6</ele><time>2015-01-01T10:06:00Z</time></trkpt><trkpt lat="39.214780" lon="-6.995345"><ele>430.5</ele><time>2015-01-01T10:06:20Z</time></trkpt><trkpt lat="39.214614" lon="-6.995017"><ele>432.5</ele><time>2015-01-01T10:06:40Z</time></trkpt><trkpt lat="39.214476" lon="-6.994899"><ele>433.6</ele><time>2015-01-01T10:07:00Z</time></trkpt><trkpt lat="39.214374" lon="-6.994795"><ele>434.3</ele><time>2015-01-01T10:07:20Z</time></trkpt><trkpt lat="39.214222" lon="-6.994646"><ele>436.0</ele><time>2015-01-01T10:07:40Z</time></trkpt><trkpt lat="39.214107" lon="-6.994510"><ele>437.6</ele><time>2015-01-01T10:08:00Z</time></trkpt><trkpt lat="39.214052" lon="-6.994448"><ele>438.0</ele><time>2015-01-01T10:08:20Z</time></trkpt><trkpt lat="39.213947" lon="-6.994335"><ele>439.0</ele><time>2015-01-01T10:08:40Z</time></trkpt><trkpt lat="39.213780" lon="-6.994184"><ele>439.3</ele><time>2015-01-01T10:09:00Z</time></trkpt><trkpt lat="39.213575" lon="-6.993917"><ele>441.9</ele><time>2015-01-01T10:09:20Z</time></trkpt><trkpt lat="39.213383" lon="-6.993628"><ele>443.5</ele><time>2015-01-01T10:09:40Z</time></trkpt><trkpt lat="39.213210" lon="-6.993273"><ele>443.6</ele><time>2015-01-01T10:10:00Z</time></trkpt><trkpt lat="39.213042" lon="-6.992963"><ele>441.4</ele><time>2015-01-01T10:10:20Z</time></trkpt><trkpt lat="39.212942" lon="-6.992760"><ele>440.0</ele><time>2015-01-01T10:10:40Z</time></trkpt><trkpt lat="39.212921" lon="-6.992702"><ele>439.2</ele><time>2015-01-01T10:11:00Z</time></trkpt><trkpt lat="39.212910" lon="-6.992646"><ele>438.6</ele><time>2015-01-01T10:11:20Z</time></trkpt><trkpt lat="39.212879" lon="-6.992485"><ele>436.9</ele><time>2015-01-01T10:11:40Z</time></trkpt><trkpt lat="39.212850" lon="-6.992360"><ele>436.1</ele><time>2015-01-01T10:12:00Z</time></trkpt><trkpt lat="39.212816" lon="-6.992216"><ele>435.1</ele><time>2015-01-01T10:12:20Z</time></trkpt><trkpt lat="39.212799" lon="-6.992100"><ele>434.7</ele><time>2015-01-01T10:12:40Z</time></trkpt><trkpt lat="39.212672" lon="-6.991631"><ele>432.2</ele><time>2015-01-01T10:13:00Z</time></trkpt><trkpt lat="39.212527" lon="-6.991168"><ele>429.9</ele><time>2015-01-01T10:13:20Z</time></trkpt><trkpt lat="39.212488" lon="-6.990995"><ele>428.7</ele><time>2015-01-01T10:13:40Z</time></trkpt><trkpt lat="39.212469" lon="-6.990825"><ele>428.1</ele><time>2015-01-01T10:14:00Z</time></trkpt><trkpt lat="39.212465" lon="-6.990721"><ele>428.0</ele><time>2015-01-01T10:14:20Z</time></trkpt><trkpt lat="39.212466" lon="-6.990622"><ele>428.0</ele><time>2015-01-01T10:14:40Z</time></trkpt><trkpt lat="39.212471" lon="-6.990544"><ele>428.2</ele><time>2015-01-01T10:15:00Z</time></trkpt><trkpt lat="39.212492" lon="-6.990407"><ele>428.7</ele><time>2015-01-01T10:15:20Z</time></trkpt><trkpt lat="39.212585" lon="-6.989873"><ele>429.7</ele><time>2015-01-01T10:15:40Z</time></trkpt><trkpt lat="39.212597" lon="-6.989489"><ele>426.3</ele><time>2015-01-01T10:16:00Z</time></trkpt><trkpt lat="39.212637" lon="-6.989175"><ele>426.0</ele><time>2015-01-01T10:16:20Z</time></trkpt><trkpt lat="39.212692" lon="-6.988861"><ele>427.1</ele><time>2015-01-01T10:16:40Z</time></trkpt><trkpt lat="39.212737" lon="-6.988333"><ele>424.7</ele><time>2015-01-01T10:17:00Z</time></trkpt><trkpt lat="39.212741" lon="-6.988017"><ele>423.0</ele><time>2015-01-01T10:17:20Z</time></trkpt><trkpt lat="39.212698" lon="-6.987761"><ele>422.0</ele><time>2015-01-01T10:17:40Z</time></trkpt><trkpt lat="39.212665" lon="-6.987646"><ele>421.6</ele><time>2015-01-01T10:18:00Z</time></trkpt><trkpt lat="39.212598" lon="-6.987413"><ele>420.8</ele><time>2015-01-01T10:18:20Z</time></trkpt><trkpt lat="39.212499" lon="-6.987018"><ele>421.2</ele><time>2015-01-01T10:18:40Z</time></trkpt><trkpt lat="39.212385" lon="-6.986649"><ele>421.4</ele><time>2015-01-01T10:19:00Z</time></trkpt><trkpt lat="39.212247" lon="-6.986374"><ele>419.9</ele><time>2015-01-01T10:19:20Z</time></trkpt><trkpt lat="39.211992" lon="-6.985963"><ele>417.7</ele><time>2015-01-01T10:19:40Z</time></trkpt><trkpt lat="39.211886" lon="-6.985592"><ele>418.0</ele><time>2015-01-01T10:20:00Z</time></trkpt><trkpt lat="39.211818" lon="-6.985429"><ele>417.5</ele><time>2015-01-01T10:20:20Z</time></trkpt><trkpt lat="39.211796" lon="-6.985343"><ele>417.6</ele><time>2015-01-01T10:20:40Z</time></trkpt><trkpt lat="39.211781" lon="-6.985285"><ele>417.6</ele><time>2015-01-01T10:21:00Z</time></trkpt><trkpt lat="39.211742" lon="-6.985191"><ele>417.4</ele><time>2015-01-01T10:21:20Z</time></trkpt><trkpt lat="39.211671" lon="-6.985078"><ele>416.3</ele><time>2015-01-01T10:21:40Z</time></trkpt><trkpt lat="39.211478" lon="-6.984674"><ele>414.5</ele><time>2015-01-01T10:22:00Z</time></trkpt><trkpt lat="39.211254" lon="-6.984217"><ele>410.4</ele><time>2015-01-01T10:22:20Z</time></trkpt><trkpt lat="39.210899" lon="-6.983482"><ele>405.1</ele><time>2015-01-01T10:22:40Z</time></trkpt><trkpt lat="39.210658" lon="-6.983022"><ele>407.1</ele><time>2015-01-01T10:23:00Z</time></trkpt><trkpt lat="39.210570" lon="-6.982837"><ele>407.5</ele><time>2015-01-01T10:23:20Z</time></trkpt><trkpt lat="39.210559" lon="-6.982734"><ele>408.6</ele><time>2015-01-01T10:23:40Z</time></trkpt><trkpt lat="39.210575" lon="-6.982633"><ele>410.1</ele><time>2015-01-01T10:24:00Z</time></trkpt><trkpt lat="39.210587" lon="-6.982521"><ele>411.6</ele><time>2015-01-01T10:24:20Z</time></trkpt><trkpt lat="39.210591" lon="-6.982467"><ele>412.4</ele><time>2015-01-01T10:24:40Z</time></trkpt><trkpt lat="39.210587" lon="-6.982398"><ele>413.3</ele><time>2015-01-01T10:25:00Z</time></trkpt><trkpt lat="39.210545" lon="-6.982144"><ele>416.1</ele><time>2015-01-01T10:25:20Z</time></trkpt><trkpt lat="39.210522" lon="-6.982035"><ele>417.5</ele><time>2015-01-01T10:25:40Z</time></trkpt><trkpt lat="39.210500" lon="-6.981937"><ele>418.7</ele><time>2015-01-01T10:26:00Z</time></trkpt><trkpt lat="39.210441" lon="-6.981736"><ele>420.4</ele><time>2015-01-01T10:26:20Z</time></trkpt><trkpt lat="39.210319" lon="-6.981394"><ele>420.9</ele><time>2015-01-01T10:26:40Z</time></trkpt><trkpt lat="39.210205" lon="-6.981068"><ele>422.0</ele><time>2015-01-01T10:27:00Z</time></trkpt><trkpt lat="39.210049" lon="-6.980784"><ele>422.6</ele><time>2015-01-01T10:27:20Z</time></trkpt><trkpt lat="39.209902" lon="-6.980533"><ele>421.7</ele><time>2015-01-01T10:27:40Z</time></trkpt><trkpt lat="39.209790" lon="-6.980119"><ele>421.5</ele><time>2015-01-01T10:28:00Z</time></trkpt><trkpt lat="39.209701" lon="-6.979762"><ele>421.4</ele><time>2015-01-01T10:28:20Z</time></trkpt><trkpt lat="39.209632" lon="-6.979439"><ele>422.0</ele><time>2015-01-01T10:28:40Z</time></trkpt><trkpt lat="39.209588" lon="-6.979230"><ele>420.7</ele><time>2015-01-01T10:29:00Z</time></trkpt><trkpt lat="39.209552" lon="-6.979052"><ele>419.0</ele><time>2015-01-01T10:29:20Z</time></trkpt><trkpt lat="39.209559" lon="-6.978979"><ele>418.8</ele><time>2015-01-01T10:29:40Z</time></trkpt><trkpt lat="39.209576" lon="-6.978864"><ele>418.7</ele><time>2015-01-01T10:30:00Z</time></trkpt><trkpt lat="39.209600" lon="-6.978714"><ele>419.2</ele><time>2015-01-01T10:30:20Z</time></trkpt><trkpt lat="39.209649" lon="-6.978441"><ele>421.2</ele><time>2015-01-01T10:30:40Z</time></trkpt><trkpt lat="39.209672" lon="-6.978290"><ele>422.6</ele><time>2015-01-01T10:31:00Z</time></trkpt><trkpt lat="39.209689" lon="-6.978167"><ele>423.7</ele><time>2015-01-01T10:31:20Z</time></trkpt><trkpt lat="39.209668" lon="-6.977983"><ele>424.7</ele><time>2015-01-01T10:31:40Z</time></trkpt><trkpt lat="39.209560" lon="-6.977731"><ele>425.6</ele><time>2015-01-01T10:32:00Z</time></trkpt><trkpt lat="39.209519" lon="-6.977519"><ele>427.1</ele><time>2015-01-01T10:32:20Z</time></trkpt><trkpt lat="39.209495" lon="-6.977397"><ele>426.7</ele><time>2015-01-01T10:32:40Z</time></trkpt><trkpt lat="39.209402" lon="-6.977032"><ele>423.9</ele><time>2015-01-01T10:33:00Z</time></trkpt><trkpt lat="39.209382" lon="-6.976564"><ele>423.4</ele><time>2015-01-01T10:33:20Z</time></trkpt><trkpt lat="39.209412" lon="-6.976357"><ele>424.2</ele><time>2015-01-01T10:33:40Z</time></trkpt><trkpt lat="39.209398" lon="-6.976169"><ele>424.0</ele><time>2015-01-01T10:34:00Z</time></trkpt><trkpt lat="39.209353" lon="-6.975927"><ele>424.1</ele><time>2015-01-01T10:34:20Z</time></trkpt><trkpt lat="39.209312" lon="-6.975746"><ele>424.6</ele><time>2015-01-01T10:34:40Z</time></trkpt><trkpt lat="39.209289" lon="-6.975605"><ele>425.5</ele><time>2015-01-01T10:35:00Z</time></trkpt><trkpt lat="39.209284" lon="-6.975475"><ele>426.8</ele><time>2015-01-01T10:35:20Z</time></trkpt><trkpt lat="39.209289" lon="-6.975373"><ele>428.0</ele><time>2015-01-01T10:35:40Z</time></trkpt><trkpt lat="39.209310" lon="-6.975263"><ele>429.8</ele><time>2015-01-01T10:36:00Z</time></trkpt><trkpt lat="39.209335" lon="-6.975123"><ele>431.6</ele><time>2015-01-01T10:36:20Z</time></trkpt><trkpt lat="39.209358" lon="-6.975015"><ele>433.1</ele><time>2015-01-01T10:36:40Z</time></trkpt><trkpt lat="39.209380" lon="-6.974896"><ele>433.5</ele><time>2015-01-01T10:37:00Z</time></trkpt><trkpt lat="39.209402" lon="-6.974818"><ele>434.0</ele><time>2015-01-01T10:37:20Z</time></trkpt><trkpt lat="39.209429" lon="-6.974698"><ele>434.4</ele><time>2015-01-01T10:37:40Z</time></trkpt><trkpt lat="39.209483" lon="-6.974475"><ele>435.4</ele><time>2015-01-01T10:38:00Z</time></trkpt><trkpt lat="39.209562" lon="-6.974113"><ele>437.2</ele><time>2015-01-01T10:38:20Z</time></trkpt><trkpt lat="39.209616" lon="-6.973800"><ele>439.1</ele><time>2015-01-01T10:38:40Z</time></trkpt><trkpt lat="39.209650" lon="-6.973577"><ele>440.1</ele><time>2015-01-01T10:39:00Z</time></trkpt><trkpt lat="39.209642" lon="-6.973374"><ele>441.0</ele><time>2015-01-01T10:39:20Z</time></trkpt><trkpt lat="39.209427" lon="-6.973192"><ele>438.8</ele><time>2015-01-01T10:39:40Z</time></trkpt><trkpt lat="39.209210" lon="-6.973010"><ele>438.6</ele><time>2015-01-01T10:40:00Z</time></trkpt><trkpt lat="39.209058" lon="-6.972841"><ele>440.5</ele><time>2015-01-01T10:40:20Z</time></trkpt><trkpt lat="39.208947" lon="-6.972653"><ele>443.3</ele><time>2015-01-01T10:40:40Z</time></trkpt><trkpt lat="39.208839" lon="-6.972422"><ele>446.7</ele><time>2015-01-01T10:41:00Z</time></trkpt><trkpt lat="39.208771" lon="-6.972230"><ele>449.3</ele><time>2015-01-01T10:41:20Z</time></trkpt><trkpt lat="39.208738" lon="-6.972150"><ele>450.3</ele><time>2015-01-01T10:41:40Z</time></trkpt><trkpt lat="39.208693" lon="-6.972020"><ele>451.8</ele><time>2015-01-01T10:42:00Z</time></trkpt><trkpt lat="39.208615" lon="-6.971823"><ele>453.3</ele><time>2015-01-01T10:42:20Z</time></trkpt><trkpt lat="39.208603" lon="-6.971629"><ele>456.3</ele><time>2015-01-01T10:42:40Z</time></trkpt><trkpt lat="39.208593" lon="-6.971447"><ele>458.5</ele><time>2015-01-01T10:43:00Z</time></trkpt><trkpt lat="39.208576" lon="-6.971236"><ele>460.4</ele><time>2015-01-01T10:43:20Z</time></trkpt><trkpt lat="39.208504" lon="-6.970905"><ele>461.4</ele><time>2015-01-01T10:43:40Z</time></trkpt><trkpt lat="39.208304" lon="-6.970472"><ele>459.8</ele><time>2015-01-01T10:44:00Z</time></trkpt><trkpt lat="39.208173" lon="-6.970206"><ele>459.1</ele><time>2015-01-01T10:44:20Z</time></trkpt><trkpt lat="39.207829" lon="-6.969830"><ele>454.9</ele><time>2015-01-01T10:44:40Z</time></trkpt><trkpt lat="39.207478" lon="-6.969495"><ele>450.2</ele><time>2015-01-01T10:45:00Z</time></trkpt><trkpt lat="39.207440" lon="-6.969454"><ele>449.6</ele><time>2015-01-01T10:45:20Z</time></trkpt><trkpt lat="39.207406" lon="-6.969404"><ele>449.2</ele><time>2015-01-01T10:45:40Z</time></trkpt><trkpt lat="39.207377" lon="-6.969350"><ele>448.9</ele><time>2015-01-01T10:46:00Z</time></trkpt><trkpt lat="39.207355" lon="-6.969292"><ele>448.7</ele><time>2015-01-01T10:46:20Z</time></trkpt><trkpt lat="39.207341" lon="-6.969233"><ele>448.7</ele><time>2015-01-01T10:46:40Z</time></trkpt><trkpt lat="39.207330" lon="-6.969173"><ele>448.7</ele><time>2015-01-01T10:47:00Z</time></trkpt><trkpt lat="39.207319" lon="-6.969060"><ele>449.0</ele><time>2015-01-01T10:47:20Z</time></trkpt><trkpt lat="39.207358" lon="-6.968573"><ele>451.2</ele><time>2015-01-01T10:47:40Z</time></trkpt><trkpt lat="39.207376" lon="-6.968425"><ele>453.2</ele><time>2015-01-01T10:48:00Z</time></trkpt><trkpt lat="39.207369" lon="-6.968312"><ele>454.0</ele><time>2015-01-01T10:48:20Z</time></trkpt><trkpt lat="39.207328" lon="-6.968169"><ele>454.2</ele><time>2015-01-01T10:48:40Z</time></trkpt><trkpt lat="39.207271" lon="-6.968075"><ele>453.4</ele><time>2015-01-01T10:49:00Z</time></trkpt><trkpt lat="39.207249" lon="-6.968036"><ele>453.1</ele><time>2015-01-01T10:49:20Z</time></trkpt><trkpt lat="39.207117" lon="-6.967819"><ele>452.8</ele><time>2015-01-01T10:49:40Z</time></trkpt><trkpt lat="39.207020" lon="-6.967677"><ele>452.0</ele><time>2015-01-01T10:50:00Z</time></trkpt><trkpt lat="39.206936" lon="-6.967555"><ele>451.3</ele><time>2015-01-01T10:50:20Z</time></trkpt><trkpt lat="39.206854" lon="-6.967327"><ele>451.0</ele><time>2015-01-01T10:50:40Z</time></trkpt><trkpt lat="39.206830" lon="-6.967219"><ele>450.7</ele><time>2015-01-01T10:51:00Z</time></trkpt><trkpt lat="39.206797" lon="-6.967067"><ele>449.5</ele><time>2015-01-01T10:51:20Z</time></trkpt><trkpt lat="39.206739" lon="-6.966747"><ele>447.3</ele><time>2015-01-01T10:51:40Z</time></trkpt><trkpt lat="39.206728" lon="-6.966581"><ele>446.7</ele><time>2015-01-01T10:52:00Z</time></trkpt><trkpt lat="39.206747" lon="-6.966389"><ele>446.9</ele><time>2015-01-01T10:52:20Z</time></trkpt><trkpt lat="39.206796" lon="-6.966201"><ele>448.3</ele><time>2015-01-01T10:52:40Z</time></trkpt><trkpt lat="39.206838" lon="-6.966008"><ele>449.0</ele><time>2015-01-01T10:53:00Z</time></trkpt><trkpt lat="39.206882" lon="-6.965819"><ele>449.4</ele><time>2015-01-01T10:53:20Z</time></trkpt><trkpt lat="39.206925" lon="-6.965634"><ele>449.8</ele><time>2015-01-01T10:53:40Z</time></trkpt><trkpt lat="39.207003" lon="-6.965300"><ele>453.5</ele><time>2015-01-01T10:54:00Z</time></trkpt><trkpt lat="39.207047" lon="-6.965116"><ele>456.7</ele><time>2015-01-01T10:54:20Z</time></trkpt><trkpt lat="39.207044" lon="-6.964923"><ele>458.0</ele><time>2015-01-01T10:54:40Z</time></trkpt><trkpt lat="39.206977" lon="-6.964693"><ele>456.7</ele><time>2015-01-01T10:55:00Z</time></trkpt><trkpt lat="39.206908" lon="-6.964463"><ele>457.8</ele><time>2015-01-01T10:55:20Z</time></trkpt><trkpt lat="39.206867" lon="-6.964308"><ele>460.1</ele><time>2015-01-01T10:55:40Z</time></trkpt><trkpt lat="39.206828" lon="-6.964133"><ele>463.0</ele><time>2015-01-01T10:56:00Z</time></trkpt><trkpt lat="39.206792" lon="-6.964029"><ele>464.0</ele><time>2015-01-01T10:56:20Z</time></trkpt><trkpt lat="39.206746" lon="-6.963970"><ele>464.1</ele><time>2015-01-01T10:56:40Z</time></trkpt><trkpt lat="39.206699" lon="-6.963899"><ele>464.4</ele><time>2015-01-01T10:57:00Z</time></trkpt><trkpt lat="39.206575" lon="-6.963679"><ele>466.6</ele><time>2015-01-01T10:57:20Z</time></trkpt><trkpt lat="39.206521" lon="-6.963577"><ele>467.9</ele><time>2015-01-01T10:57:40Z</time></trkpt><trkpt lat="39.206492" lon="-6.963502"><ele>468.8</ele><time>2015-01-01T10:58:00Z</time></trkpt><trkpt lat="39.206509" lon="-6.963418"><ele>469.9</ele><time>2015-01-01T10:58:20Z</time></trkpt><trkpt lat="39.206527" lon="-6.963341"><ele>470.9</ele><time>2015-01-01T10:58:40Z</time></trkpt><trkpt lat="39.206546" lon="-6.963211"><ele>471.0</ele><time>2015-01-01T10:59:00Z</time></trkpt><trkpt lat="39.206553" lon="-6.963098"><ele>471.0</ele><time>2015-01-01T10:59:20Z</time></trkpt><trkpt lat="39.206537" lon="-6.962989"><ele>470.4</ele><time>2015-01-01T10:59:40Z</time></trkpt><trkpt lat="39.206533" lon="-6.962867"><ele>469.3</ele><time>2015-01-01T11:00:00Z</time></trkpt><trkpt lat="39.206581" lon="-6.962658"><ele>467.7</ele><time>2015-01-01T11:00:20Z</time></trkpt><trkpt lat="39.206649" lon="-6.962328"><ele>465.1</ele><time>2015-01-01T11:00:40Z</time></trkpt><trkpt lat="39.206649" lon="-6.962062"><ele>461.6</ele><time>2015-01-01T11:01:00Z</time></trkpt><trkpt lat="39.206626" lon="-6.961784"><ele>457.7</ele><time>2015-01-01T11:01:20Z</time></trkpt><trkpt lat="39.206599" lon="-6.961499"><ele>455.0</ele><time>2015-01-01T11:01:40Z</time></trkpt><trkpt lat="39.206588" lon="-6.961411"><ele>454.4</ele><time>2015-01-01T11:02:00Z</time></trkpt><trkpt lat="39.206550" lon="-6.961229"><ele>452.9</ele><time>2015-01-01T11:02:20Z</time></trkpt><trkpt lat="39.206212" lon="-6.960357"><ele>450.7</ele><time>2015-01-01T11:02:40Z</time></trkpt><trkpt lat="39.206064" lon="-6.959902"><ele>453.9</ele><time>2015-01-01T11:03:00Z</time></trkpt><trkpt lat="39.205986" lon="-6.959539"><ele>455.6</ele><time>2015-01-01T11:03:20Z</time></trkpt><trkpt lat="39.205916" lon="-6.959136"><ele>455.6</ele><time>2015-01-01T11:03:40Z</time></trkpt><trkpt lat="39.205814" lon="-6.958716"><ele>455.7</ele><time>2015-01-01T11:04:00Z</time></trkpt><trkpt lat="39.205711" lon="-6.958256"><ele>455.2</ele><time>2015-01-01T11:04:20Z</time></trkpt><trkpt lat="39.205672" lon="-6.957843"><ele>456.9</ele><time>2015-01-01T11:04:40Z</time></trkpt><trkpt lat="39.205597" lon="-6.957467"><ele>459.0</ele><time>2015-01-01T11:05:00Z</time></trkpt><trkpt lat="39.205548" lon="-6.957314"><ele>459.2</ele><time>2015-01-01T11:05:20Z</time></trkpt><trkpt lat="39.205515" lon="-6.957242"><ele>459.0</ele><time>2015-01-01T11:05:40Z</time></trkpt><trkpt lat="39.205453" lon="-6.957172"><ele>457.7</ele><time>2015-01-01T11:06:00Z</time></trkpt><trkpt lat="39.205481" lon="-6.957087"><ele>458.0</ele><time>2015-01-01T11:06:20Z</time></trkpt><trkpt lat="39.205507" lon="-6.957014"><ele>458.3</ele><time>2015-01-01T11:06:40Z</time></trkpt><trkpt lat="39.205538" lon="-6.956964"><ele>458.8</ele><time>2015-01-01T11:07:00Z</time></trkpt><trkpt lat="39.205575" lon="-6.956882"><ele>458.9</ele><time>2015-01-01T11:07:20Z</time></trkpt><trkpt lat="39.205598" lon="-6.956831"><ele>459.0</ele><time>2015-01-01T11:07:40Z</time></trkpt><trkpt lat="39.205640" lon="-6.956750"><ele>459.3</ele><time>2015-01-01T11:08:00Z</time></trkpt><trkpt lat="39.205686" lon="-6.956644"><ele>459.7</ele><time>2015-01-01T11:08:20Z</time></trkpt><trkpt lat="39.205727" lon="-6.956576"><ele>460.0</ele><time>2015-01-01T11:08:40Z</time></trkpt><trkpt lat="39.205770" lon="-6.956506"><ele>460.5</ele><time>2015-01-01T11:09:00Z</time></trkpt><trkpt lat="39.205806" lon="-6.956473"><ele>461.0</ele><time>2015-01-01T11:09:20Z</time></trkpt><trkpt lat="39.205864" lon="-6.956445"><ele>462.2</ele><time>2015-01-01T11:09:40Z</time></trkpt><trkpt lat="39.205934" lon="-6.956438"><ele>464.0</ele><time>2015-01-01T11:10:00Z</time></trkpt><trkpt lat="39.206131" lon="-6.956397"><ele>468.7</ele><time>2015-01-01T11:10:20Z</time></trkpt><trkpt lat="39.206218" lon="-6.956336"><ele>470.0</ele><time>2015-01-01T11:10:40Z</time></trkpt><trkpt lat="39.206307" lon="-6.956247"><ele>470.4</ele><time>2015-01-01T11:11:00Z</time></trkpt><trkpt lat="39.206398" lon="-6.956122"><ele>469.6</ele><time>2015-01-01T11:11:20Z</time></trkpt><trkpt lat="39.206610" lon="-6.955784"><ele>471.9</ele><time>2015-01-01T11:11:40Z</time></trkpt><trkpt lat="39.206818" lon="-6.955364"><ele>479.0</ele><time>2015-01-01T11:12:00Z</time></trkpt><trkpt lat="39.206951" lon="-6.954976"><ele>479.9</ele><time>2015-01-01T11:12:20Z</time></trkpt><trkpt lat="39.207073" lon="-6.954596"><ele>478.8</ele><time>2015-01-01T11:12:40Z</time></trkpt><trkpt lat="39.207227" lon="-6.954295"><ele>483.1</ele><time>2015-01-01T11:13:00Z</time></trkpt><trkpt lat="39.207401" lon="-6.954053"><ele>487.1</ele><time>2015-01-01T11:13:20Z</time></trkpt><trkpt lat="39.207557" lon="-6.953819"><ele>488.8</ele><time>2015-01-01T11:13:40Z</time></trkpt><trkpt lat="39.207586" lon="-6.953784"><ele>489.1</ele><time>2015-01-01T11:14:00Z</time></trkpt><trkpt lat="39.207662" lon="-6.953651"><ele>489.6</ele><time>2015-01-01T11:14:20Z</time></trkpt><trkpt lat="39.207715" lon="-6.953574"><ele>489.6</ele><time>2015-01-01T11:14:40Z</time></trkpt><trkpt lat="39.207768" lon="-6.953538"><ele>489.5</ele><time>2015-01-01T11:15:00Z</time></trkpt><trkpt lat="39.207846" lon="-6.953504"><ele>488.9</ele><time>2015-01-01T11:15:20Z</time></trkpt><trkpt lat="39.208089" lon="-6.953630"><ele>488.7</ele><time>2015-01-01T11:15:40Z</time></trkpt><trkpt lat="39.208283" lon="-6.953740"><ele>487.9</ele><time>2015-01-01T11:16:00Z</time></trkpt><trkpt lat="39.208467" lon="-6.953822"><ele>486.8</ele><time>2015-01-01T11:16:20Z</time></trkpt><trkpt lat="39.208672" lon="-6.953943"><ele>487.0</ele><time>2015-01-01T11:16:40Z</time></trkpt><trkpt lat="39.208867" lon="-6.954140"><ele>489.7</ele><time>2015-01-01T11:17:00Z</time></trkpt><trkpt lat="39.209008" lon="-6.954373"><ele>490.3</ele><time>2015-01-01T11:17:20Z</time></trkpt><trkpt lat="39.209085" lon="-6.954635"><ele>492.5</ele><time>2015-01-01T11:17:40Z</time></trkpt><trkpt lat="39.209177" lon="-6.955000"><ele>496.8</ele><time>2015-01-01T11:18:00Z</time></trkpt><trkpt lat="39.209282" lon="-6.955469"><ele>501.8</ele><time>2015-01-01T11:18:20Z</time></trkpt><trkpt lat="39.209376" lon="-6.955556"><ele>500.7</ele><time>2015-01-01T11:18:40Z</time></trkpt><trkpt lat="39.209724" lon="-6.955748"><ele>494.0</ele><time>2015-01-01T11:19:00Z</time></trkpt><trkpt lat="39.209920" lon="-6.956012"><ele>493.0</ele><time>2015-01-01T11:19:20Z</time></trkpt><trkpt lat="39.209981" lon="-6.956279"><ele>494.4</ele><time>2015-01-01T11:19:40Z</time></trkpt><trkpt lat="39.209957" lon="-6.956862"><ele>498.5</ele><time>2015-01-01T11:20:00Z</time></trkpt><trkpt lat="39.210061" lon="-6.957229"><ele>494.2</ele><time>2015-01-01T11:20:20Z</time></trkpt><trkpt lat="39.210039" lon="-6.957557"><ele>495.3</ele><time>2015-01-01T11:20:40Z</time></trkpt><trkpt lat="39.210180" lon="-6.957857"><ele>494.0</ele><time>2015-01-01T11:21:00Z</time></trkpt><trkpt lat="39.210198" lon="-6.958069"><ele>496.4</ele><time>2015-01-01T11:21:20Z</time></trkpt><trkpt lat="39.210204" lon="-6.958195"><ele>497.6</ele><time>2015-01-01T11:21:40Z</time></trkpt><trkpt lat="39.210192" lon="-6.958300"><ele>499.1</ele><time>2015-01-01T11:22:00Z</time></trkpt><trkpt lat="39.210191" lon="-6.958387"><ele>499.8</ele><time>2015-01-01T11:22:20Z</time></trkpt><trkpt lat="39.210182" lon="-6.958503"><ele>500.6</ele><time>2015-01-01T11:22:40Z</time></trkpt><trkpt lat="39.210160" lon="-6.958870"><ele>500.7</ele><time>2015-01-01T11:23:00Z</time></trkpt><trkpt lat="39.210063" lon="-6.959670"><ele>506.1</ele><time>2015-01-01T11:23:20Z</time></trkpt><trkpt lat="39.209988" lon="-6.960167"><ele>509.8</ele><time>2015-01-01T11:23:40Z</time></trkpt><trkpt lat="39.209946" lon="-6.960716"><ele>510.4</ele><time>2015-01-01T11:24:00Z</time></trkpt><trkpt lat="39.210006" lon="-6.961172"><ele>511.5</ele><time>2015-01-01T11:24:20Z</time></trkpt><trkpt lat="39.210237" lon="-6.962042"><ele>511.0</ele><time>2015-01-01T11:24:40Z</time></trkpt><trkpt lat="39.210192" lon="-6.962136"><ele>514.3</ele><time>2015-01-01T11:25:00Z</time></trkpt><trkpt lat="39.209900" lon="-6.961550"><ele>520.1</ele><time>2015-01-01T11:25:20Z</time></trkpt><trkpt lat="39.209644" lon="-6.960982"><ele>520.3</ele><time>2015-01-01T11:25:40Z</time></trkpt><trkpt lat="39.209426" lon="-6.960482"><ele>524.2</ele><time>2015-01-01T11:26:00Z</time></trkpt><trkpt lat="39.209198" lon="-6.959915"><ele>527.2</ele><time>2015-01-01T11:26:20Z</time></trkpt><trkpt lat="39.209164" lon="-6.959685"><ele>528.5</ele><time>2015-01-01T11:26:40Z</time></trkpt><trkpt lat="39.209237" lon="-6.959234"><ele>530.2</ele><time>2015-01-01T11:27:00Z</time></trkpt><trkpt lat="39.209260" lon="-6.958940"><ele>531.9</ele><time>2015-01-01T11:27:20Z</time></trkpt><trkpt lat="39.209163" lon="-6.958315"><ele>536.1</ele><time>2015-01-01T11:27:40Z</time></trkpt><trkpt lat="39.209024" lon="-6.957847"><ele>539.6</ele><time>2015-01-01T11:28:00Z</time></trkpt><trkpt lat="39.208951" lon="-6.957409"><ele>537.8</ele><time>2015-01-01T11:28:20Z</time></trkpt><trkpt lat="39.208871" lon="-6.957070"><ele>539.5</ele><time>2015-01-01T11:28:40Z</time></trkpt><trkpt lat="39.208737" lon="-6.956871"><ele>542.5</ele><time>2015-01-01T11:29:00Z</time></trkpt><trkpt lat="39.208621" lon="-6.956721"><ele>545.7</ele><time>2015-01-01T11:29:20Z</time></trkpt><trkpt lat="39.208430" lon="-6.956602"><ele>545.6</ele><time>2015-01-01T11:29:40Z</time></trkpt><trkpt lat="39.208161" lon="-6.956407"><ele>541.2</ele><time>2015-01-01T11:30:00Z</time></trkpt><trkpt lat="39.208128" lon="-6.956449"><ele>541.3</ele><time>2015-01-01T11:30:20Z</time></trkpt><trkpt lat="39.208202" lon="-6.956690"><ele>545.8</ele><time>2015-01-01T11:30:40Z</time></trkpt><trkpt lat="39.208290" lon="-6.956942"><ele>548.5</ele><time>2015-01-01T11:31:00Z</time></trkpt><trkpt lat="39.208340" lon="-6.957120"><ele>550.2</ele><time>2015-01-01T11:31:20Z</time></trkpt><trkpt lat="39.208330" lon="-6.957346"><ele>551.8</ele><time>2015-01-01T11:31:40Z</time></trkpt><trkpt lat="39.208361" lon="-6.957539"><ele>553.1</ele><time>2015-01-01T11:32:00Z</time></trkpt><trkpt lat="39.208348" lon="-6.957821"><ele>555.6</ele><time>2015-01-01T11:32:20Z</time></trkpt><trkpt lat="39.208443" lon="-6.957994"><ele>555.2</ele><time>2015-01-01T11:32:40Z</time></trkpt><trkpt lat="39.208443" lon="-6.957994"><ele>555.2</ele><time>2015-01-01T11:33:00Z</time></trkpt><trkpt lat="39.208348" lon="-6.957821"><ele>555.6</ele><time>2015-01-01T11:33:20Z</time></trkpt><trkpt lat="39.208361" lon="-6.957539"><ele>553.1</ele><time>2015-01-01T11:33:40Z</time></trkpt><trkpt lat="39.208330" lon="-6.957346"><ele>551.8</ele><time>2015-01-01T11:34:00Z</time></trkpt><trkpt lat="39.208340" lon="-6.957120"><ele>550.2</ele><time>2015-01-01T11:34:20Z</time></trkpt><trkpt lat="39.208290" lon="-6.956942"><ele>548.5</ele><time>2015-01-01T11:34:40Z</time></trkpt><trkpt lat="39.208202" lon="-6.956690"><ele>545.8</ele><time>2015-01-01T11:35:00Z</time></trkpt><trkpt lat="39.208128" lon="-6.956449"><ele>541.3</ele><time>2015-01-01T11:35:20Z</time></trkpt><trkpt lat="39.208161" lon="-6.956407"><ele>541.2</ele><time>2015-01-01T11:35:40Z</time></trkpt><trkpt lat="39.208430" lon="-6.956602"><ele>545.6</ele><time>2015-01-01T11:36:00Z</time></trkpt><trkpt lat="39.208621" lon="-6.956721"><ele>545.7</ele><time>2015-01-01T11:36:20Z</time></trkpt><trkpt lat="39.208737" lon="-6.956871"><ele>542.5</ele><time>2015-01-01T11:36:40Z</time></trkpt><trkpt lat="39.208871" lon="-6.957070"><ele>539.5</ele><time>2015-01-01T11:37:00Z</time></trkpt><trkpt lat="39.208951" lon="-6.957409"><ele>537.8</ele><time>2015-01-01T11:37:20Z</time></trkpt><trkpt lat="39.209024" lon="-6.957847"><ele>539.6</ele><time>2015-01-01T11:37:40Z</time></trkpt><trkpt lat="39.209163" lon="-6.958315"><ele>536.1</ele><time>2015-01-01T11:38:00Z</time></trkpt><trkpt lat="39.209260" lon="-6.958940"><ele>531.9</ele><time>2015-01-01T11:38:20Z</time></trkpt><trkpt lat="39.209237" lon="-6.959234"><ele>530.2</ele><time>2015-01-01T11:38:40Z</time></trkpt><trkpt lat="39.209164" lon="-6.959685"><ele>528.5</ele><time>2015-01-01T11:39:00Z</time></trkpt><trkpt lat="39.209198" lon="-6.959915"><ele>527.2</ele><time>2015-01-01T11:39:20Z</time></trkpt><trkpt lat="39.209426" lon="-6.960482"><ele>524.2</ele><time>2015-01-01T11:39:40Z</time></trkpt><trkpt lat="39.209644" lon="-6.960982"><ele>520.3</ele><time>2015-01-01T11:40:00Z</time></trkpt><trkpt lat="39.209900" lon="-6.961550"><ele>520.1</ele><time>2015-01-01T11:40:20Z</time></trkpt><trkpt lat="39.210192" lon="-6.962136"><ele>514.3</ele><time>2015-01-01T11:40:40Z</time></trkpt><trkpt lat="39.210237" lon="-6.962042"><ele>511.0</ele><time>2015-01-01T11:41:00Z</time></trkpt><trkpt lat="39.210006" lon="-6.961172"><ele>511.5</ele><time>2015-01-01T11:41:20Z</time></trkpt><trkpt lat="39.209946" lon="-6.960716"><ele>510.4</ele><time>2015-01-01T11:41:40Z</time></trkpt><trkpt lat="39.209988" lon="-6.960167"><ele>509.8</ele><time>2015-01-01T11:42:00Z</time></trkpt><trkpt lat="39.210063" lon="-6.959670"><ele>506.1</ele><time>2015-01-01T11:42:20Z</time></trkpt><trkpt lat="39.210160" lon="-6.958870"><ele>500.7</ele><time>2015-01-01T11:42:40Z</time></trkpt><trkpt lat="39.210182" lon="-6.958503"><ele>500.6</ele><time>2015-01-01T11:43:00Z</time></trkpt><trkpt lat="39.210191" lon="-6.958387"><ele>499.8</ele><time>2015-01-01T11:43:20Z</time></trkpt><trkpt lat="39.210192" lon="-6.958300"><ele>499.1</ele><time>2015-01-01T11:43:40Z</time></trkpt><trkpt lat="39.210204" lon="-6.958195"><ele>497.6</ele><time>2015-01-01T11:44:00Z</time></trkpt><trkpt lat="39.210204" lon="-6.958172"><ele>497.4</ele><time>2015-01-01T11:44:20Z</time></trkpt><trkpt lat="39.210247" lon="-6.958085"><ele>495.2</ele><time>2015-01-01T11:44:40Z</time></trkpt><trkpt lat="39.210244" lon="-6.958012"><ele>494.3</ele><time>2015-01-01T11:45:00Z</time></trkpt><trkpt lat="39.210250" lon="-6.957717"><ele>490.4</ele><time>2015-01-01T11:45:20Z</time></trkpt><trkpt lat="39.210291" lon="-6.957425"><ele>487.7</ele><time>2015-01-01T11:45:40Z</time></trkpt><trkpt lat="39.210332" lon="-6.957211"><ele>486.8</ele><time>2015-01-01T11:46:00Z</time></trkpt><trkpt lat="39.210327" lon="-6.957148"><ele>486.9</ele><time>2015-01-01T11:46:20Z</time></trkpt><trkpt lat="39.210314" lon="-6.957084"><ele>487.2</ele><time>2015-01-01T11:46:40Z</time></trkpt><trkpt lat="39.210296" lon="-6.957024"><ele>487.6</ele><time>2015-01-01T11:47:00Z</time></trkpt><trkpt lat="39.210279" lon="-6.956966"><ele>488.0</ele><time>2015-01-01T11:47:20Z</time></trkpt><trkpt lat="39.210265" lon="-6.956909"><ele>488.4</ele><time>2015-01-01T11:47:40Z</time></trkpt><trkpt lat="39.210249" lon="-6.956789"><ele>488.9</ele><time>2015-01-01T11:48:00Z</time></trkpt><trkpt lat="39.210260" lon="-6.956730"><ele>488.5</ele><time>2015-01-01T11:48:20Z</time></trkpt><trkpt lat="39.210276" lon="-6.956668"><ele>488.1</ele><time>2015-01-01T11:48:40Z</time></trkpt><trkpt lat="39.210300" lon="-6.956604"><ele>486.8</ele><time>2015-01-01T11:49:00Z</time></trkpt><trkpt lat="39.210329" lon="-6.956540"><ele>485.4</ele><time>2015-01-01T11:49:20Z</time></trkpt><trkpt lat="39.210362" lon="-6.956480"><ele>484.0</ele><time>2015-01-01T11:49:40Z</time></trkpt><trkpt lat="39.210522" lon="-6.956205"><ele>480.3</ele><time>2015-01-01T11:50:00Z</time></trkpt><trkpt lat="39.210554" lon="-6.956156"><ele>479.7</ele><time>2015-01-01T11:50:20Z</time></trkpt><trkpt lat="39.210695" lon="-6.955954"><ele>476.0</ele><time>2015-01-01T11:50:40Z</time></trkpt><trkpt lat="39.210877" lon="-6.955729"><ele>471.1</ele><time>2015-01-01T11:51:00Z</time></trkpt><trkpt lat="39.210996" lon="-6.955563"><ele>468.5</ele><time>2015-01-01T11:51:20Z</time></trkpt><trkpt lat="39.211023" lon="-6.955528"><ele>467.8</ele><time>2015-01-01T11:51:40Z</time></trkpt><trkpt lat="39.211119" lon="-6.955402"><ele>465.3</ele><time>2015-01-01T11:52:00Z</time></trkpt><trkpt lat="39.211266" lon="-6.955169"><ele>461.6</ele><time>2015-01-01T11:52:20Z</time></trkpt><trkpt lat="39.211382" lon="-6.955003"><ele>459.1</ele><time>2015-01-01T11:52:40Z</time></trkpt><trkpt lat="39.211500" lon="-6.954847"><ele>454.9</ele><time>2015-01-01T11:53:00Z</time></trkpt><trkpt lat="39.211531" lon="-6.954809"><ele>454.1</ele><time>2015-01-01T11:53:20Z</time></trkpt><trkpt lat="39.211562" lon="-6.954768"><ele>453.3</ele><time>2015-01-01T11:53:40Z</time></trkpt><trkpt lat="39.211593" lon="-6.954724"><ele>452.5</ele><time>2015-01-01T11:54:00Z</time></trkpt><trkpt lat="39.211624" lon="-6.954678"><ele>451.7</ele><time>2015-01-01T11:54:20Z</time></trkpt><trkpt lat="39.211766" lon="-6.954505"><ele>447.6</ele><time>2015-01-01T11:54:40Z</time></trkpt><trkpt lat="39.211948" lon="-6.954291"><ele>443.8</ele><time>2015-01-01T11:55:00Z</time></trkpt><trkpt lat="39.212053" lon="-6.954186"><ele>441.5</ele><time>2015-01-01T11:55:20Z</time></trkpt><trkpt lat="39.212111" lon="-6.954113"><ele>440.3</ele><time>2015-01-01T11:55:40Z</time></trkpt><trkpt lat="39.212271" lon="-6.953902"><ele>437.7</ele><time>2015-01-01T11:56:00Z</time></trkpt><trkpt lat="39.212336" lon="-6.953817"><ele>436.8</ele><time>2015-01-01T11:56:20Z</time></trkpt><trkpt lat="39.212372" lon="-6.953783"><ele>436.4</ele><time>2015-01-01T11:56:40Z</time></trkpt><trkpt lat="39.212560" lon="-6.953591"><ele>434.0</ele><time>2015-01-01T11:57:00Z</time></trkpt><trkpt lat="39.212641" lon="-6.953499"><ele>432.6</ele><time>2015-01-01T11:57:20Z</time></trkpt><trkpt lat="39.212828" lon="-6.953279"><ele>430.8</ele><time>2015-01-01T11:57:40Z</time></trkpt><trkpt lat="39.212591" lon="-6.953163"><ele>431.5</ele><time>2015-01-01T11:58:00Z</time></trkpt><trkpt lat="39.212397" lon="-6.953062"><ele>431.0</ele><time>2015-01-01T11:58:20Z</time></trkpt><trkpt lat="39.212261" lon="-6.952967"><ele>430.0</ele><time>2015-01-01T11:58:40Z</time></trkpt><trkpt lat="39.212136" lon="-6.952901"><ele>429.3</ele><time>2015-01-01T11:59:00Z</time></trkpt><trkpt lat="39.212011" lon="-6.952870"><ele>429.0</ele><time>2015-01-01T11:59:20Z</time></trkpt><trkpt lat="39.211990" lon="-6.952793"><ele>428.2</ele><time>2015-01-01T11:59:40Z</time></trkpt><trkpt lat="39.211985" lon="-6.952648"><ele>426.5</ele><time>2015-01-01T12:00:00Z</time></trkpt><trkpt lat="39.212001" lon="-6.952541"><ele>425.3</ele><time>2015-01-01T12:00:20Z</time></trkpt><trkpt lat="39.211952" lon="-6.952473"><ele>424.6</ele><time>2015-01-01T12:00:40Z</time></trkpt><trkpt lat="39.211902" lon="-6.952410"><ele>424.0</ele><time>2015-01-01T12:01:00Z</time></trkpt><trkpt lat="39.211876" lon="-6.952359"><ele>423.3</ele><time>2015-01-01T12:01:20Z</time></trkpt><trkpt lat="39.211848" lon="-6.952279"><ele>422.2</ele><time>2015-01-01T12:01:40Z</time></trkpt><trkpt lat="39.211825" lon="-6.952158"><ele>420.5</ele><time>2015-01-01T12:02:00Z</time></trkpt><trkpt lat="39.211798" lon="-6.952046"><ele>419.0</ele><time>2015-01-01T12:02:20Z</time></trkpt><trkpt lat="39.211755" lon="-6.951896"><ele>417.5</ele><time>2015-01-01T12:02:40Z</time></trkpt><trkpt lat="39.211691" lon="-6.951713"><ele>417.0</ele><time>2015-01-01T12:03:00Z</time></trkpt><trkpt lat="39.211623" lon="-6.951556"><ele>416.8</ele><time>2015-01-01T12:03:20Z</time></trkpt><trkpt lat="39.211548" lon="-6.951352"><ele>416.3</ele><time>2015-01-01T12:03:40Z</time></trkpt><trkpt lat="39.211482" lon="-6.951183"><ele>415.2</ele><time>2015-01-01T12:04:00Z</time></trkpt><trkpt lat="39.211471" lon="-6.951126"><ele>414.7</ele><time>2015-01-01T12:04:20Z</time></trkpt><trkpt lat="39.211492" lon="-6.950995"><ele>413.9</ele><time>2015-01-01T12:04:40Z</time></trkpt><trkpt lat="39.211481" lon="-6.950888"><ele>413.1</ele><time>2015-01-01T12:05:00Z</time></trkpt><trkpt lat="39.211425" lon="-6.950768"><ele>411.8</ele><time>2015-01-01T12:05:20Z</time></trkpt><trkpt lat="39.211333" lon="-6.950545"><ele>409.9</ele><time>2015-01-01T12:05:40Z</time></trkpt><trkpt lat="39.211251" lon="-6.950356"><ele>407.8</ele><time>2015-01-01T12:06:00Z</time></trkpt><trkpt lat="39.211213" lon="-6.950279"><ele>407.0</ele><time>2015-01-01T12:06:20Z</time></trkpt><trkpt lat="39.211176" lon="-6.950219"><ele>406.4</ele><time>2015-01-01T12:06:40Z</time></trkpt><trkpt lat="39.211122" lon="-6.950189"><ele>406.0</ele><time>2015-01-01T12:07:00Z</time></trkpt><trkpt lat="39.211080" lon="-6.950147"><ele>405.8</ele><time>2015-01-01T12:07:20Z</time></trkpt><trkpt lat="39.211041" lon="-6.950102"><ele>405.7</ele><time>2015-01-01T12:07:40Z</time></trkpt><trkpt lat="39.211011" lon="-6.950045"><ele>405.4</ele><time>2015-01-01T12:08:00Z</time></trkpt><trkpt lat="39.210985" lon="-6.949985"><ele>405.2</ele><time>2015-01-01T12:08:20Z</time></trkpt><trkpt lat="39.210950" lon="-6.949905"><ele>404.9</ele><time>2015-01-01T12:08:40Z</time></trkpt><trkpt lat="39.210892" lon="-6.949799"><ele>404.4</ele><time>2015-01-01T12:09:00Z</time></trkpt><trkpt lat="39.210840" lon="-6.949691"><ele>403.8</ele><time>2015-01-01T12:09:20Z</time></trkpt><trkpt lat="39.210793" lon="-6.949556"><ele>403.5</ele><time>2015-01-01T12:09:40Z</time></trkpt><trkpt lat="39.210737" lon="-6.949459"><ele>403.1</ele><time>2015-01-01T12:10:00Z</time></trkpt><trkpt lat="39.210689" lon="-6.949388"><ele>402.7</ele><time>2015-01-01T12:10:20Z</time></trkpt><trkpt lat="39.210631" lon="-6.949326"><ele>402.3</ele><time>2015-01-01T12:10:40Z</time></trkpt><trkpt lat="39.210590" lon="-6.949281"><ele>401.9</ele><time>2015-01-01T12:11:00Z</time></trkpt><trkpt lat="39.210564" lon="-6.949224"><ele>401.4</ele><time>2015-01-01T12:11:20Z</time></trkpt><trkpt lat="39.210538" lon="-6.949167"><ele>401.1</ele><time>2015-01-01T12:11:40Z</time></trkpt><trkpt lat="39.210542" lon="-6.949109"><ele>400.4</ele><time>2015-01-01T12:12:00Z</time></trkpt><trkpt lat="39.210552" lon="-6.949027"><ele>399.5</ele><time>2015-01-01T12:12:20Z</time></trkpt><trkpt lat="39.210528" lon="-6.948941"><ele>398.6</ele><time>2015-01-01T12:12:40Z</time></trkpt><trkpt lat="39.210501" lon="-6.948832"><ele>397.6</ele><time>2015-01-01T12:13:00Z</time></trkpt><trkpt lat="39.210475" lon="-6.948772"><ele>397.2</ele><time>2015-01-01T12:13:20Z</time></trkpt><trkpt lat="39.210454" lon="-6.948709"><ele>396.7</ele><time>2015-01-01T12:13:40Z</time></trkpt><trkpt lat="39.210468" lon="-6.948624"><ele>396.1</ele><time>2015-01-01T12:14:00Z</time></trkpt><trkpt lat="39.210538" lon="-6.948504"><ele>395.2</ele><time>2015-01-01T12:14:20Z</time></trkpt><trkpt lat="39.210532" lon="-6.948400"><ele>394.5</ele><time>2015-01-01T12:14:40Z</time></trkpt><trkpt lat="39.210415" lon="-6.948174"><ele>392.6</ele><time>2015-01-01T12:15:00Z</time></trkpt><trkpt lat="39.210278" lon="-6.948074"><ele>392.1</ele><time>2015-01-01T12:15:20Z</time></trkpt><trkpt lat="39.210110" lon="-6.948122"><ele>393.2</ele><time>2015-01-01T12:15:40Z</time></trkpt><trkpt lat="39.209824" lon="-6.947633"><ele>390.9</ele><time>2015-01-01T12:16:00Z</time></trkpt><trkpt lat="39.209824" lon="-6.947633"><ele>390.9</ele><time>2015-01-01T12:16:20Z</time></trkpt><trkpt lat="39.210110" lon="-6.948122"><ele>393.2</ele><time>2015-01-01T12:16:40Z</time></trkpt><trkpt lat="39.210278" lon="-6.948074"><ele>392.1</ele><time>2015-01-01T12:17:00Z</time></trkpt><trkpt lat="39.210415" lon="-6.948174"><ele>392.6</ele><time>2015-01-01T12:17:20Z</time></trkpt><trkpt lat="39.210532" lon="-6.948400"><ele>394.5</ele><time>2015-01-01T12:17:40Z</time></trkpt><trkpt lat="39.210538" lon="-6.948504"><ele>395.2</ele><time>2015-01-01T12:18:00Z</time></trkpt><trkpt lat="39.210468" lon="-6.948624"><ele>396.1</ele><time>2015-01-01T12:18:20Z</time></trkpt><trkpt lat="39.210454" lon="-6.948709"><ele>396.7</ele><time>2015-01-01T12:18:40Z</time></trkpt><trkpt lat="39.210475" lon="-6.948772"><ele>397.2</ele><time>2015-01-01T12:19:00Z</time></trkpt><trkpt lat="39.210501" lon="-6.948832"><ele>397.6</ele><time>2015-01-01T12:19:20Z</time></trkpt><trkpt lat="39.210528" lon="-6.948941"><ele>398.6</ele><time>2015-01-01T12:19:40Z</time></trkpt><trkpt lat="39.210552" lon="-6.949027"><ele>399.5</ele><time>2015-01-01T12:20:00Z</time></trkpt><trkpt lat="39.210542" lon="-6.949109"><ele>400.4</ele><time>2015-01-01T12:20:20Z</time></trkpt><trkpt lat="39.210538" lon="-6.949167"><ele>401.1</ele><time>2015-01-01T12:20:40Z</time></trkpt><trkpt lat="39.210564" lon="-6.949224"><ele>401.4</ele><time>2015-01-01T12:21:00Z</time></trkpt><trkpt lat="39.210590" lon="-6.949281"><ele>401.9</ele><time>2015-01-01T12:21:20Z</time></trkpt><trkpt lat="39.210631" lon="-6.949326"><ele>402.3</ele><time>2015-01-01T12:21:40Z</time></trkpt><trkpt lat="39.210689" lon="-6.949388"><ele>402.7</ele><time>2015-01-01T12:22:00Z</time></trkpt><trkpt lat="39.210737" lon="-6.949459"><ele>403.1</ele><time>2015-01-01T12:22:20Z</time></trkpt><trkpt lat="39.210793" lon="-6.949556"><ele>403.5</ele><time>2015-01-01T12:22:40Z</time></trkpt><trkpt lat="39.210840" lon="-6.949691"><ele>403.8</ele><time>2015-01-01T12:23:00Z</time></trkpt><trkpt lat="39.210892" lon="-6.949799"><ele>404.4</ele><time>2015-01-01T12:23:20Z</time></trkpt><trkpt lat="39.210950" lon="-6.949905"><ele>404.9</ele><time>2015-01-01T12:23:40Z</time></trkpt><trkpt lat="39.210985" lon="-6.949985"><ele>405.2</ele><time>2015-01-01T12:24:00Z</time></trkpt><trkpt lat="39.211011" lon="-6.950045"><ele>405.4</ele><time>2015-01-01T12:24:20Z</time></trkpt><trkpt lat="39.211041" lon="-6.950102"><ele>405.7</ele><time>2015-01-01T12:24:40Z</time></trkpt><trkpt lat="39.211080" lon="-6.950147"><ele>405.8</ele><time>2015-01-01T12:25:00Z</time></trkpt><trkpt lat="39.211122" lon="-6.950189"><ele>406.0</ele><time>2015-01-01T12:25:20Z</time></trkpt><trkpt lat="39.211176" lon="-6.950219"><ele>406.4</ele><time>2015-01-01T12:25:40Z</time></trkpt><trkpt lat="39.211213" lon="-6.950279"><ele>407.0</ele><time>2015-01-01T12:26:00Z</time></trkpt><trkpt lat="39.211251" lon="-6.950356"><ele>407.8</ele><time>2015-01-01T12:26:20Z</time></trkpt><trkpt lat="39.211333" lon="-6.950545"><ele>409.9</ele><time>2015-01-01T12:26:40Z</time></trkpt><trkpt lat="39.211425" lon="-6.950768"><ele>411.8</ele><time>2015-01-01T12:27:00Z</time></trkpt><trkpt lat="39.211481" lon="-6.950888"><ele>413.1</ele><time>2015-01-01T12:27:20Z</time></trkpt><trkpt lat="39.211492" lon="-6.950995"><ele>413.9</ele><time>2015-01-01T12:27:40Z</time></trkpt><trkpt lat="39.211471" lon="-6.951126"><ele>414.7</ele><time>2015-01-01T12:28:00Z</time></trkpt><trkpt lat="39.211482" lon="-6.951183"><ele>415.2</ele><time>2015-01-01T12:28:20Z</time></trkpt><trkpt lat="39.211548" lon="-6.951352"><ele>416.3</ele><time>2015-01-01T12:28:40Z</time></trkpt><trkpt lat="39.211623" lon="-6.951556"><ele>416.8</ele><time>2015-01-01T12:29:00Z</time></trkpt><trkpt lat="39.211691" lon="-6.951713"><ele>417.0</ele><time>2015-01-01T12:29:20Z</time></trkpt><trkpt lat="39.211755" lon="-6.951896"><ele>417.5</ele><time>2015-01-01T12:29:40Z</time></trkpt><trkpt lat="39.211798" lon="-6.952046"><ele>419.0</ele><time>2015-01-01T12:30:00Z</time></trkpt><trkpt lat="39.211825" lon="-6.952158"><ele>420.5</ele><time>2015-01-01T12:30:20Z</time></trkpt><trkpt lat="39.211848" lon="-6.952279"><ele>422.2</ele><time>2015-01-01T12:30:40Z</time></trkpt><trkpt lat="39.211876" lon="-6.952359"><ele>423.3</ele><time>2015-01-01T12:31:00Z</time></trkpt><trkpt lat="39.211902" lon="-6.952410"><ele>424.0</ele><time>2015-01-01T12:31:20Z</time></trkpt><trkpt lat="39.211952" lon="-6.952473"><ele>424.6</ele><time>2015-01-01T12:31:40Z</time></trkpt><trkpt lat="39.212001" lon="-6.952541"><ele>425.3</ele><time>2015-01-01T12:32:00Z</time></trkpt><trkpt lat="39.211985" lon="-6.952648"><ele>426.5</ele><time>2015-01-01T12:32:20Z</time></trkpt><trkpt lat="39.211990" lon="-6.952793"><ele>428.2</ele><time>2015-01-01T12:32:40Z</time></trkpt><trkpt lat="39.212011" lon="-6.952870"><ele>429.0</ele><time>2015-01-01T12:33:00Z</time></trkpt><trkpt lat="39.212136" lon="-6.952901"><ele>429.3</ele><time>2015-01-01T12:33:20Z</time></trkpt><trkpt lat="39.212261" lon="-6.952967"><ele>430.0</ele><time>2015-01-01T12:33:40Z</time></trkpt><trkpt lat="39.212397" lon="-6.953062"><ele>431.0</ele><time>2015-01-01T12:34:00Z</time></trkpt><trkpt lat="39.212591" lon="-6.953163"><ele>431.5</ele><time>2015-01-01T12:34:20Z</time></trkpt><trkpt lat="39.212828" lon="-6.953279"><ele>430.8</ele><time>2015-01-01T12:34:40Z</time></trkpt><trkpt lat="39.212831" lon="-6.953272"><ele>430.8</ele><time>2015-01-01T12:35:00Z</time></trkpt><trkpt lat="39.212850" lon="-6.953360"><ele>430.7</ele><time>2015-01-01T12:35:20Z</time></trkpt><trkpt lat="39.212879" lon="-6.953429"><ele>430.4</ele><time>2015-01-01T12:35:40Z</time></trkpt><trkpt lat="39.212937" lon="-6.953549"><ele>429.5</ele><time>2015-01-01T12:36:00Z</time></trkpt><trkpt lat="39.212979" lon="-6.953667"><ele>428.9</ele><time>2015-01-01T12:36:20Z</time></trkpt><trkpt lat="39.213129" lon="-6.954181"><ele>428.0</ele><time>2015-01-01T12:36:40Z</time></trkpt><trkpt lat="39.213280" lon="-6.954701"><ele>428.9</ele><time>2015-01-01T12:37:00Z</time></trkpt><trkpt lat="39.213358" lon="-6.954970"><ele>429.8</ele><time>2015-01-01T12:37:20Z</time></trkpt><trkpt lat="39.213429" lon="-6.955309"><ele>430.8</ele><time>2015-01-01T12:37:40Z</time></trkpt><trkpt lat="39.213589" lon="-6.955874"><ele>432.2</ele><time>2015-01-01T12:38:00Z</time></trkpt><trkpt lat="39.213733" lon="-6.956294"><ele>432.8</ele><time>2015-01-01T12:38:20Z</time></trkpt><trkpt lat="39.213964" lon="-6.956693"><ele>432.5</ele><time>2015-01-01T12:38:40Z</time></trkpt><trkpt lat="39.214011" lon="-6.956827"><ele>432.1</ele><time>2015-01-01T12:39:00Z</time></trkpt><trkpt lat="39.214073" lon="-6.956936"><ele>431.7</ele><time>2015-01-01T12:39:20Z</time></trkpt><trkpt lat="39.214068" lon="-6.957003"><ele>431.8</ele><time>2015-01-01T12:39:40Z</time></trkpt><trkpt lat="39.214054" lon="-6.957082"><ele>432.0</ele><time>2015-01-01T12:40:00Z</time></trkpt><trkpt lat="39.214044" lon="-6.957163"><ele>432.2</ele><time>2015-01-01T12:40:20Z</time></trkpt><trkpt lat="39.214015" lon="-6.957300"><ele>432.9</ele><time>2015-01-01T12:40:40Z</time></trkpt><trkpt lat="39.213973" lon="-6.957501"><ele>434.1</ele><time>2015-01-01T12:41:00Z</time></trkpt><trkpt lat="39.213907" lon="-6.957836"><ele>433.7</ele><time>2015-01-01T12:41:20Z</time></trkpt><trkpt lat="39.213811" lon="-6.958392"><ele>434.8</ele><time>2015-01-01T12:41:40Z</time></trkpt><trkpt lat="39.213782" lon="-6.958784"><ele>437.0</ele><time>2015-01-01T12:42:00Z</time></trkpt><trkpt lat="39.213790" lon="-6.959368"><ele>440.3</ele><time>2015-01-01T12:42:20Z</time></trkpt><trkpt lat="39.213830" lon="-6.959602"><ele>440.5</ele><time>2015-01-01T12:42:40Z</time></trkpt><trkpt lat="39.213982" lon="-6.959933"><ele>439.6</ele><time>2015-01-01T12:43:00Z</time></trkpt><trkpt lat="39.214089" lon="-6.960299"><ele>440.3</ele><time>2015-01-01T12:43:20Z</time></trkpt><trkpt lat="39.214156" lon="-6.960606"><ele>440.9</ele><time>2015-01-01T12:43:40Z</time></trkpt><trkpt lat="39.214204" lon="-6.960787"><ele>439.7</ele><time>2015-01-01T12:44:00Z</time></trkpt><trkpt lat="39.214265" lon="-6.960933"><ele>438.3</ele><time>2015-01-01T12:44:20Z</time></trkpt><trkpt lat="39.214350" lon="-6.961144"><ele>436.6</ele><time>2015-01-01T12:44:40Z</time></trkpt><trkpt lat="39.214397" lon="-6.961357"><ele>435.5</ele><time>2015-01-01T12:45:00Z</time></trkpt><trkpt lat="39.214465" lon="-6.961766"><ele>432.5</ele><time>2015-01-01T12:45:20Z</time></trkpt><trkpt lat="39.214549" lon="-6.962320"><ele>431.1</ele><time>2015-01-01T12:45:40Z</time></trkpt><trkpt lat="39.214602" lon="-6.962559"><ele>430.8</ele><time>2015-01-01T12:46:00Z</time></trkpt><trkpt lat="39.214694" lon="-6.962920"><ele>430.0</ele><time>2015-01-01T12:46:20Z</time></trkpt><trkpt lat="39.214756" lon="-6.963356"><ele>428.7</ele><time>2015-01-01T12:46:40Z</time></trkpt><trkpt lat="39.214768" lon="-6.963550"><ele>428.5</ele><time>2015-01-01T12:47:00Z</time></trkpt><trkpt lat="39.214767" lon="-6.963727"><ele>428.2</ele><time>2015-01-01T12:47:20Z</time></trkpt><trkpt lat="39.214761" lon="-6.963903"><ele>427.7</ele><time>2015-01-01T12:47:40Z</time></trkpt><trkpt lat="39.214736" lon="-6.964217"><ele>427.7</ele><time>2015-01-01T12:48:00Z</time></trkpt><trkpt lat="39.214693" lon="-6.964718"><ele>427.4</ele><time>2015-01-01T12:48:20Z</time></trkpt><trkpt lat="39.214691" lon="-6.965280"><ele>429.6</ele><time>2015-01-01T12:48:40Z</time></trkpt><trkpt lat="39.214736" lon="-6.965586"><ele>429.6</ele><time>2015-01-01T12:49:00Z</time></trkpt><trkpt lat="39.214828" lon="-6.965817"><ele>427.0</ele><time>2015-01-01T12:49:20Z</time></trkpt><trkpt lat="39.215242" lon="-6.966273"><ele>424.6</ele><time>2015-01-01T12:49:40Z</time></trkpt><trkpt lat="39.215389" lon="-6.966442"><ele>424.4</ele><time>2015-01-01T12:50:00Z</time></trkpt><trkpt lat="39.215483" lon="-6.966544"><ele>424.1</ele><time>2015-01-01T12:50:20Z</time></trkpt><trkpt lat="39.215554" lon="-6.966600"><ele>423.8</ele><time>2015-01-01T12:50:40Z</time></trkpt><trkpt lat="39.215590" lon="-6.966632"><ele>423.7</ele><time>2015-01-01T12:51:00Z</time></trkpt><trkpt lat="39.215678" lon="-6.966729"><ele>423.8</ele><time>2015-01-01T12:51:20Z</time></trkpt><trkpt lat="39.215756" lon="-6.966814"><ele>423.8</ele><time>2015-01-01T12:51:40Z</time></trkpt><trkpt lat="39.215818" lon="-6.966905"><ele>423.9</ele><time>2015-01-01T12:52:00Z</time></trkpt><trkpt lat="39.215874" lon="-6.966999"><ele>424.0</ele><time>2015-01-01T12:52:20Z</time></trkpt><trkpt lat="39.215925" lon="-6.967081"><ele>424.0</ele><time>2015-01-01T12:52:40Z</time></trkpt><trkpt lat="39.215974" lon="-6.967180"><ele>423.9</ele><time>2015-01-01T12:53:00Z</time></trkpt><trkpt lat="39.215993" lon="-6.967255"><ele>423.7</ele><time>2015-01-01T12:53:20Z</time></trkpt><trkpt lat="39.216004" lon="-6.967339"><ele>423.4</ele><time>2015-01-01T12:53:40Z</time></trkpt><trkpt lat="39.216008" lon="-6.967424"><ele>423.0</ele><time>2015-01-01T12:54:00Z</time></trkpt><trkpt lat="39.216005" lon="-6.967497"><ele>422.8</ele><time>2015-01-01T12:54:20Z</time></trkpt><trkpt lat="39.216000" lon="-6.967563"><ele>422.3</ele><time>2015-01-01T12:54:40Z</time></trkpt><trkpt lat="39.215989" lon="-6.967658"><ele>421.7</ele><time>2015-01-01T12:55:00Z</time></trkpt><trkpt lat="39.215986" lon="-6.967722"><ele>421.3</ele><time>2015-01-01T12:55:20Z</time></trkpt><trkpt lat="39.216067" lon="-6.967727"><ele>420.7</ele><time>2015-01-01T12:55:40Z</time></trkpt><trkpt lat="39.216154" lon="-6.967716"><ele>420.3</ele><time>2015-01-01T12:56:00Z</time></trkpt><trkpt lat="39.216457" lon="-6.967622"><ele>419.6</ele><time>2015-01-01T12:56:20Z</time></trkpt><trkpt lat="39.216790" lon="-6.967504"><ele>419.5</ele><time>2015-01-01T12:56:40Z</time></trkpt><trkpt lat="39.217137" lon="-6.967453"><ele>417.0</ele><time>2015-01-01T12:57:00Z</time></trkpt><trkpt lat="39.217411" lon="-6.967409"><ele>414.1</ele><time>2015-01-01T12:57:20Z</time></trkpt><trkpt lat="39.217509" lon="-6.967377"><ele>412.9</ele><time>2015-01-01T12:57:40Z</time></trkpt><trkpt lat="39.217738" lon="-6.967306"><ele>410.2</ele><time>2015-01-01T12:58:00Z</time></trkpt><trkpt lat="39.218202" lon="-6.967138"><ele>406.9</ele><time>2015-01-01T12:58:20Z</time></trkpt><trkpt lat="39.218257" lon="-6.967121"><ele>406.7</ele><time>2015-01-01T12:58:40Z</time></trkpt><trkpt lat="39.218772" lon="-6.966935"><ele>404.8</ele><time>2015-01-01T12:59:00Z</time></trkpt><trkpt lat="39.218824" lon="-6.966919"><ele>404.5</ele><time>2015-01-01T12:59:20Z</time></trkpt><trkpt lat="39.218871" lon="-6.966898"><ele>404.1</ele><time>2015-01-01T12:59:40Z</time></trkpt><trkpt lat="39.218939" lon="-6.966855"><ele>403.6</ele><time>2015-01-01T13:00:00Z</time></trkpt><trkpt lat="39.219004" lon="-6.966811"><ele>403.0</ele><time>2015-01-01T13:00:20Z</time></trkpt><trkpt lat="39.219046" lon="-6.966785"><ele>402.5</ele><time>2015-01-01T13:00:40Z</time></trkpt><trkpt lat="39.219094" lon="-6.966754"><ele>402.0</ele><time>2015-01-01T13:01:00Z</time></trkpt><trkpt lat="39.219147" lon="-6.966723"><ele>401.4</ele><time>2015-01-01T13:01:20Z</time></trkpt><trkpt lat="39.219270" lon="-6.966663"><ele>400.6</ele><time>2015-01-01T13:01:40Z</time></trkpt><trkpt lat="39.219547" lon="-6.966559"><ele>399.2</ele><time>2015-01-01T13:02:00Z</time></trkpt><trkpt lat="39.220093" lon="-6.966393"><ele>398.7</ele><time>2015-01-01T13:02:20Z</time></trkpt><trkpt lat="39.220147" lon="-6.966392"><ele>398.5</ele><time>2015-01-01T13:02:40Z</time></trkpt><trkpt lat="39.220179" lon="-6.966402"><ele>398.3</ele><time>2015-01-01T13:03:00Z</time></trkpt><trkpt lat="39.220198" lon="-6.966431"><ele>398.1</ele><time>2015-01-01T13:03:20Z</time></trkpt><trkpt lat="39.220212" lon="-6.966497"><ele>397.6</ele><time>2015-01-01T13:03:40Z</time></trkpt><trkpt lat="39.220232" lon="-6.966621"><ele>396.8</ele><time>2015-01-01T13:04:00Z</time></trkpt><trkpt lat="39.220255" lon="-6.966750"><ele>396.5</ele><time>2015-01-01T13:04:20Z</time></trkpt><trkpt lat="39.220312" lon="-6.967048"><ele>396.6</ele><time>2015-01-01T13:04:40Z</time></trkpt><trkpt lat="39.220349" lon="-6.967226"><ele>396.5</ele><time>2015-01-01T13:05:00Z</time></trkpt><trkpt lat="39.220358" lon="-6.967387"><ele>396.4</ele><time>2015-01-01T13:05:20Z</time></trkpt><trkpt lat="39.220661" lon="-6.967940"><ele>396.8</ele><time>2015-01-01T13:05:40Z</time></trkpt><trkpt lat="39.220759" lon="-6.968143"><ele>396.5</ele><time>2015-01-01T13:06:00Z</time></trkpt><trkpt lat="39.220793" lon="-6.968290"><ele>396.3</ele><time>2015-01-01T13:06:20Z</time></trkpt><trkpt lat="39.220850" lon="-6.968614"><ele>395.0</ele><time>2015-01-01T13:06:40Z</time></trkpt><trkpt lat="39.220864" lon="-6.968669"><ele>395.0</ele><time>2015-01-01T13:07:00Z</time></trkpt><trkpt lat="39.220926" lon="-6.968884"><ele>394.7</ele><time>2015-01-01T13:07:20Z</time></trkpt><trkpt lat="39.220938" lon="-6.968941"><ele>394.7</ele><time>2015-01-01T13:07:40Z</time></trkpt><trkpt lat="39.220970" lon="-6.969154"><ele>395.0</ele><time>2015-01-01T13:08:00Z</time></trkpt><trkpt lat="39.220966" lon="-6.969285"><ele>395.0</ele><time>2015-01-01T13:08:20Z</time></trkpt><trkpt lat="39.220976" lon="-6.969334"><ele>395.0</ele><time>2015-01-01T13:08:40Z</time></trkpt><trkpt lat="39.221029" lon="-6.969404"><ele>395.0</ele><time>2015-01-01T13:09:00Z</time></trkpt><trkpt lat="39.221180" lon="-6.969663"><ele>394.5</ele><time>2015-01-01T13:09:20Z</time></trkpt><trkpt lat="39.221203" lon="-6.969833"><ele>394.3</ele><time>2015-01-01T13:09:40Z</time></trkpt><trkpt lat="39.221221" lon="-6.969963"><ele>394.2</ele><time>2015-01-01T13:10:00Z</time></trkpt><trkpt lat="39.221235" lon="-6.970125"><ele>394.1</ele><time>2015-01-01T13:10:20Z</time></trkpt><trkpt lat="39.221239" lon="-6.970238"><ele>394.1</ele><time>2015-01-01T13:10:40Z</time></trkpt><trkpt lat="39.221254" lon="-6.970396"><ele>394.4</ele><time>2015-01-01T13:11:00Z</time></trkpt><trkpt lat="39.221295" lon="-6.970599"><ele>394.8</ele><time>2015-01-01T13:11:20Z</time></trkpt><trkpt lat="39.221320" lon="-6.970635"><ele>394.8</ele><time>2015-01-01T13:11:40Z</time></trkpt><trkpt lat="39.221370" lon="-6.970678"><ele>394.6</ele><time>2015-01-01T13:12:00Z</time></trkpt><trkpt lat="39.221400" lon="-6.970685"><ele>394.5</ele><time>2015-01-01T13:12:20Z</time></trkpt><trkpt lat="39.221431" lon="-6.970684"><ele>394.7</ele><time>2015-01-01T13:12:40Z</time></trkpt><trkpt lat="39.221773" lon="-6.970596"><ele>396.1</ele><time>2015-01-01T13:13:00Z</time></trkpt><trkpt lat="39.221883" lon="-6.970575"><ele>396.8</ele><time>2015-01-01T13:13:20Z</time></trkpt><trkpt lat="39.221950" lon="-6.970562"><ele>397.1</ele><time>2015-01-01T13:13:40Z</time></trkpt><trkpt lat="39.222010" lon="-6.970537"><ele>397.1</ele><time>2015-01-01T13:14:00Z</time></trkpt><trkpt lat="39.222031" lon="-6.970530"><ele>397.2</ele><time>2015-01-01T13:14:20Z</time></trkpt><trkpt lat="39.222084" lon="-6.970517"><ele>397.3</ele><time>2015-01-01T13:14:40Z</time></trkpt><trkpt lat="39.222118" lon="-6.970534"><ele>397.5</ele><time>2015-01-01T13:15:00Z</time></trkpt><trkpt lat="39.222153" lon="-6.970550"><ele>397.7</ele><time>2015-01-01T13:15:20Z</time></trkpt><trkpt lat="39.222165" lon="-6.970613"><ele>398.3</ele><time>2015-01-01T13:15:40Z</time></trkpt><trkpt lat="39.222163" lon="-6.970660"><ele>398.6</ele><time>2015-01-01T13:16:00Z</time></trkpt><trkpt lat="39.222155" lon="-6.970701"><ele>398.9</ele><time>2015-01-01T13:16:20Z</time></trkpt><trkpt lat="39.222150" lon="-6.970779"><ele>399.6</ele><time>2015-01-01T13:16:40Z</time></trkpt><trkpt lat="39.222149" lon="-6.970801"><ele>399.7</ele><time>2015-01-01T13:17:00Z</time></trkpt><trkpt lat="39.222154" lon="-6.970909"><ele>400.3</ele><time>2015-01-01T13:17:20Z</time></trkpt><trkpt lat="39.222164" lon="-6.971083"><ele>400.9</ele><time>2015-01-01T13:17:40Z</time></trkpt><trkpt lat="39.222158" lon="-6.971245"><ele>401.9</ele><time>2015-01-01T13:18:00Z</time></trkpt><trkpt lat="39.222159" lon="-6.971459"><ele>403.0</ele><time>2015-01-01T13:18:20Z</time></trkpt><trkpt lat="39.222184" lon="-6.971665"><ele>403.9</ele><time>2015-01-01T13:18:40Z</time></trkpt><trkpt lat="39.222246" lon="-6.971923"><ele>404.9</ele><time>2015-01-01T13:19:00Z</time></trkpt><trkpt lat="39.222258" lon="-6.972192"><ele>405.1</ele><time>2015-01-01T13:19:20Z</time></trkpt><trkpt lat="39.222258" lon="-6.972434"><ele>405.1</ele><time>2015-01-01T13:19:40Z</time></trkpt><trkpt lat="39.222257" lon="-6.972856"><ele>405.2</ele><time>2015-01-01T13:20:00Z</time></trkpt><trkpt lat="39.222204" lon="-6.973310"><ele>405.0</ele><time>2015-01-01T13:20:20Z</time></trkpt><trkpt lat="39.222182" lon="-6.973520"><ele>405.0</ele><time>2015-01-01T13:20:40Z</time></trkpt><trkpt lat="39.222140" lon="-6.973684"><ele>405.4</ele><time>2015-01-01T13:21:00Z</time></trkpt><trkpt lat="39.222075" lon="-6.973836"><ele>406.2</ele><time>2015-01-01T13:21:20Z</time></trkpt><trkpt lat="39.222000" lon="-6.973937"><ele>406.5</ele><time>2015-01-01T13:21:40Z</time></trkpt><trkpt lat="39.221927" lon="-6.974020"><ele>406.9</ele><time>2015-01-01T13:22:00Z</time></trkpt><trkpt lat="39.221868" lon="-6.974117"><ele>407.4</ele><time>2015-01-01T13:22:20Z</time></trkpt><trkpt lat="39.221847" lon="-6.974216"><ele>407.8</ele><time>2015-01-01T13:22:40Z</time></trkpt><trkpt lat="39.221863" lon="-6.974335"><ele>408.3</ele><time>2015-01-01T13:23:00Z</time></trkpt><trkpt lat="39.221873" lon="-6.974427"><ele>408.7</ele><time>2015-01-01T13:23:20Z</time></trkpt><trkpt lat="39.221902" lon="-6.974556"><ele>409.0</ele><time>2015-01-01T13:23:40Z</time></trkpt><trkpt lat="39.221925" lon="-6.974663"><ele>409.0</ele><time>2015-01-01T13:24:00Z</time></trkpt><trkpt lat="39.221971" lon="-6.974890"><ele>409.6</ele><time>2015-01-01T13:24:20Z</time></trkpt><trkpt lat="39.222045" lon="-6.975215"><ele>410.6</ele><time>2015-01-01T13:24:40Z</time></trkpt><trkpt lat="39.222104" lon="-6.975512"><ele>412.0</ele><time>2015-01-01T13:25:00Z</time></trkpt><trkpt lat="39.222157" lon="-6.975739"><ele>413.2</ele><time>2015-01-01T13:25:20Z</time></trkpt><trkpt lat="39.222235" lon="-6.975957"><ele>414.5</ele><time>2015-01-01T13:25:40Z</time></trkpt><trkpt lat="39.222326" lon="-6.976128"><ele>415.9</ele><time>2015-01-01T13:26:00Z</time></trkpt><trkpt lat="39.222377" lon="-6.976228"><ele>417.0</ele><time>2015-01-01T13:26:20Z</time></trkpt><trkpt lat="39.222406" lon="-6.976300"><ele>417.7</ele><time>2015-01-01T13:26:40Z</time></trkpt><trkpt lat="39.222435" lon="-6.976444"><ele>418.5</ele><time>2015-01-01T13:27:00Z</time></trkpt><trkpt lat="39.222434" lon="-6.976568"><ele>418.5</ele><time>2015-01-01T13:27:20Z</time></trkpt><trkpt lat="39.222429" lon="-6.976600"><ele>418.5</ele><time>2015-01-01T13:27:40Z</time></trkpt><trkpt lat="39.222408" lon="-6.976693"><ele>418.3</ele><time>2015-01-01T13:28:00Z</time></trkpt><trkpt lat="39.222388" lon="-6.976827"><ele>417.8</ele><time>2015-01-01T13:28:20Z</time></trkpt><trkpt lat="39.222326" lon="-6.977032"><ele>417.2</ele><time>2015-01-01T13:28:40Z</time></trkpt><trkpt lat="39.222238" lon="-6.977263"><ele>416.4</ele><time>2015-01-01T13:29:00Z</time></trkpt><trkpt lat="39.222018" lon="-6.977570"><ele>417.7</ele><time>2015-01-01T13:29:20Z</time></trkpt><trkpt lat="39.221830" lon="-6.977923"><ele>419.3</ele><time>2015-01-01T13:29:40Z</time></trkpt><trkpt lat="39.221662" lon="-6.978322"><ele>420.0</ele><time>2015-01-01T13:30:00Z</time></trkpt><trkpt lat="39.221542" lon="-6.978427"><ele>419.8</ele><time>2015-01-01T13:30:20Z</time></trkpt><trkpt lat="39.221490" lon="-6.978567"><ele>419.7</ele><time>2015-01-01T13:30:40Z</time></trkpt><trkpt lat="39.221490" lon="-6.978689"><ele>419.4</ele><time>2015-01-01T13:31:00Z</time></trkpt><trkpt lat="39.221583" lon="-6.979121"><ele>417.7</ele><time>2015-01-01T13:31:20Z</time></trkpt><trkpt lat="39.221756" lon="-6.979808"><ele>414.7</ele><time>2015-01-01T13:31:40Z</time></trkpt><trkpt lat="39.221839" lon="-6.980098"><ele>415.0</ele><time>2015-01-01T13:32:00Z</time></trkpt><trkpt lat="39.221890" lon="-6.980319"><ele>415.1</ele><time>2015-01-01T13:32:20Z</time></trkpt><trkpt lat="39.221923" lon="-6.980408"><ele>414.6</ele><time>2015-01-01T13:32:40Z</time></trkpt><trkpt lat="39.221970" lon="-6.980517"><ele>413.9</ele><time>2015-01-01T13:33:00Z</time></trkpt><trkpt lat="39.222024" lon="-6.980669"><ele>413.4</ele><time>2015-01-01T13:33:20Z</time></trkpt><trkpt lat="39.222024" lon="-6.980782"><ele>413.4</ele><time>2015-01-01T13:33:40Z</time></trkpt><trkpt lat="39.221994" lon="-6.980881"><ele>413.5</ele><time>2015-01-01T13:34:00Z</time></trkpt><trkpt lat="39.221969" lon="-6.980977"><ele>413.4</ele><time>2015-01-01T13:34:20Z</time></trkpt><trkpt lat="39.221941" lon="-6.981074"><ele>413.2</ele><time>2015-01-01T13:34:40Z</time></trkpt><trkpt lat="39.221901" lon="-6.981231"><ele>412.9</ele><time>2015-01-01T13:35:00Z</time></trkpt><trkpt lat="39.221866" lon="-6.981354"><ele>412.7</ele><time>2015-01-01T13:35:20Z</time></trkpt><trkpt lat="39.221844" lon="-6.981456"><ele>412.6</ele><time>2015-01-01T13:35:40Z</time></trkpt><trkpt lat="39.221815" lon="-6.981581"><ele>412.6</ele><time>2015-01-01T13:36:00Z</time></trkpt><trkpt lat="39.221801" lon="-6.981674"><ele>412.5</ele><time>2015-01-01T13:36:20Z</time></trkpt><trkpt lat="39.221758" lon="-6.981936"><ele>412.0</ele><time>2015-01-01T13:36:40Z</time></trkpt><trkpt lat="39.221651" lon="-6.982382"><ele>412.1</ele><time>2015-01-01T13:37:00Z</time></trkpt><trkpt lat="39.221600" lon="-6.982670"><ele>412.7</ele><time>2015-01-01T13:37:20Z</time></trkpt><trkpt lat="39.221497" lon="-6.983255"><ele>414.3</ele><time>2015-01-01T13:37:40Z</time></trkpt><trkpt lat="39.221375" lon="-6.983861"><ele>414.0</ele><time>2015-01-01T13:38:00Z</time></trkpt><trkpt lat="39.221357" lon="-6.984143"><ele>415.0</ele><time>2015-01-01T13:38:20Z</time></trkpt><trkpt lat="39.221430" lon="-6.984558"><ele>417.5</ele><time>2015-01-01T13:38:40Z</time></trkpt><trkpt lat="39.221453" lon="-6.984731"><ele>418.6</ele><time>2015-01-01T13:39:00Z</time></trkpt><trkpt lat="39.221485" lon="-6.984886"><ele>419.1</ele><time>2015-01-01T13:39:20Z</time></trkpt><trkpt lat="39.221523" lon="-6.985140"><ele>419.8</ele><time>2015-01-01T13:39:40Z</time></trkpt><trkpt lat="39.221554" lon="-6.985388"><ele>420.0</ele><time>2015-01-01T13:40:00Z</time></trkpt><trkpt lat="39.221599" lon="-6.985613"><ele>420.7</ele><time>2015-01-01T13:40:20Z</time></trkpt><trkpt lat="39.221621" lon="-6.985852"><ele>422.3</ele><time>2015-01-01T13:40:40Z</time></trkpt><trkpt lat="39.221638" lon="-6.986072"><ele>423.8</ele><time>2015-01-01T13:41:00Z</time></trkpt><trkpt lat="39.221643" lon="-6.986341"><ele>425.7</ele><time>2015-01-01T13:41:20Z</time></trkpt><trkpt lat="39.221641" lon="-6.986497"><ele>426.5</ele><time>2015-01-01T13:41:40Z</time></trkpt><trkpt lat="39.221622" lon="-6.986588"><ele>426.9</ele><time>2015-01-01T13:42:00Z</time></trkpt><trkpt lat="39.221577" lon="-6.986649"><ele>427.3</ele><time>2015-01-01T13:42:20Z</time></trkpt><trkpt lat="39.221386" lon="-6.986713"><ele>427.8</ele><time>2015-01-01T13:42:40Z</time></trkpt><trkpt lat="39.221303" lon="-6.986739"><ele>427.5</ele><time>2015-01-01T13:43:00Z</time></trkpt><trkpt lat="39.221145" lon="-6.986755"><ele>427.1</ele><time>2015-01-01T13:43:20Z</time></trkpt><trkpt lat="39.221049" lon="-6.986801"><ele>427.3</ele><time>2015-01-01T13:43:40Z</time></trkpt><trkpt lat="39.220957" lon="-6.986911"><ele>428.0</ele><time>2015-01-01T13:44:00Z</time></trkpt><trkpt lat="39.220872" lon="-6.987090"><ele>429.2</ele><time>2015-01-01T13:44:20Z</time></trkpt><trkpt lat="39.220821" lon="-6.987251"><ele>430.2</ele><time>2015-01-01T13:44:40Z</time></trkpt><trkpt lat="39.220689" lon="-6.987483"><ele>432.1</ele><time>2015-01-01T13:45:00Z</time></trkpt><trkpt lat="39.220643" lon="-6.987652"><ele>431.8</ele><time>2015-01-01T13:45:20Z</time></trkpt><trkpt lat="39.220605" lon="-6.987819"><ele>431.2</ele><time>2015-01-01T13:45:40Z</time></trkpt><trkpt lat="39.220540" lon="-6.987971"><ele>430.7</ele><time>2015-01-01T13:46:00Z</time></trkpt><trkpt lat="39.220462" lon="-6.988106"><ele>429.9</ele><time>2015-01-01T13:46:20Z</time></trkpt><trkpt lat="39.220363" lon="-6.988320"><ele>428.5</ele><time>2015-01-01T13:46:40Z</time></trkpt><trkpt lat="39.220146" lon="-6.988900"><ele>424.5</ele><time>2015-01-01T13:47:00Z</time></trkpt><trkpt lat="39.220109" lon="-6.989110"><ele>423.3</ele><time>2015-01-01T13:47:20Z</time></trkpt><trkpt lat="39.220058" lon="-6.989393"><ele>421.2</ele><time>2015-01-01T13:47:40Z</time></trkpt><trkpt lat="39.219933" lon="-6.989829"><ele>419.5</ele><time>2015-01-01T13:48:00Z</time></trkpt><trkpt lat="39.219847" lon="-6.990067"><ele>420.2</ele><time>2015-01-01T13:48:20Z</time></trkpt><trkpt lat="39.219798" lon="-6.990591"><ele>421.1</ele><time>2015-01-01T13:48:40Z</time></trkpt><trkpt lat="39.219738" lon="-6.990836"><ele>421.9</ele><time>2015-01-01T13:49:00Z</time></trkpt><trkpt lat="39.219711" lon="-6.991082"><ele>422.0</ele><time>2015-01-01T13:49:20Z</time></trkpt><trkpt lat="39.219680" lon="-6.991346"><ele>422.1</ele><time>2015-01-01T13:49:40Z</time></trkpt><trkpt lat="39.219615" lon="-6.991655"><ele>422.4</ele><time>2015-01-01T13:50:00Z</time></trkpt><trkpt lat="39.219542" lon="-6.991981"><ele>422.6</ele><time>2015-01-01T13:50:20Z</time></trkpt><trkpt lat="39.219502" lon="-6.992179"><ele>422.8</ele><time>2015-01-01T13:50:40Z</time></trkpt><trkpt lat="39.219501" lon="-6.992367"><ele>423.3</ele><time>2015-01-01T13:51:00Z</time></trkpt><trkpt lat="39.219519" lon="-6.992462"><ele>423.6</ele><time>2015-01-01T13:51:20Z</time></trkpt><trkpt lat="39.219525" lon="-6.992729"><ele>423.7</ele><time>2015-01-01T13:51:40Z</time></trkpt><trkpt lat="39.219525" lon="-6.992943"><ele>423.7</ele><time>2015-01-01T13:52:00Z</time></trkpt><trkpt lat="39.219499" lon="-6.993427"><ele>425.6</ele><time>2015-01-01T13:52:20Z</time></trkpt><trkpt lat="39.219483" lon="-6.993801"><ele>427.6</ele><time>2015-01-01T13:52:40Z</time></trkpt><trkpt lat="39.219460" lon="-6.994161"><ele>428.0</ele><time>2015-01-01T13:53:00Z</time></trkpt><trkpt lat="39.219448" lon="-6.994364"><ele>428.7</ele><time>2015-01-01T13:53:20Z</time></trkpt><trkpt lat="39.219434" lon="-6.994486"><ele>429.2</ele><time>2015-01-01T13:53:40Z</time></trkpt><trkpt lat="39.219329" lon="-6.994947"><ele>430.8</ele><time>2015-01-01T13:54:00Z</time></trkpt><trkpt lat="39.219250" lon="-6.995296"><ele>430.7</ele><time>2015-01-01T13:54:20Z</time></trkpt><trkpt lat="39.219153" lon="-6.995670"><ele>432.0</ele><time>2015-01-01T13:54:40Z</time></trkpt><trkpt lat="39.219091" lon="-6.995892"><ele>432.1</ele><time>2015-01-01T13:55:00Z</time></trkpt><trkpt lat="39.219038" lon="-6.996093"><ele>432.4</ele><time>2015-01-01T13:55:20Z</time></trkpt><trkpt lat="39.219004" lon="-6.996308"><ele>434.0</ele><time>2015-01-01T13:55:40Z</time></trkpt><trkpt lat="39.218997" lon="-6.996442"><ele>434.8</ele><time>2015-01-01T13:56:00Z</time></trkpt><trkpt lat="39.218869" lon="-6.996465"><ele>435.6</ele><time>2015-01-01T13:56:20Z</time></trkpt><trkpt lat="39.218712" lon="-6.996510"><ele>436.8</ele><time>2015-01-01T13:56:40Z</time></trkpt><trkpt lat="39.218569" lon="-6.996570"><ele>438.2</ele><time>2015-01-01T13:57:00Z</time></trkpt><trkpt lat="39.218421" lon="-6.996629"><ele>439.9</ele><time>2015-01-01T13:57:20Z</time></trkpt><trkpt lat="39.218260" lon="-6.996685"><ele>441.1</ele><time>2015-01-01T13:57:40Z</time></trkpt><trkpt lat="39.218049" lon="-6.996842"><ele>441.6</ele><time>2015-01-01T13:58:00Z</time></trkpt><trkpt lat="39.217809" lon="-6.997066"><ele>442.0</ele><time>2015-01-01T13:58:20Z</time></trkpt><trkpt lat="39.217547" lon="-6.997250"><ele>441.1</ele><time>2015-01-01T13:58:40Z</time></trkpt><trkpt lat="39.217372" lon="-6.997443"><ele>439.9</ele><time>2015-01-01T13:59:00Z</time></trkpt><trkpt lat="39.217154" lon="-6.997681"><ele>437.8</ele><time>2015-01-01T13:59:20Z</time></trkpt><trkpt lat="39.217050" lon="-6.997806"><ele>436.6</ele><time>2015-01-01T13:59:40Z</time></trkpt><trkpt lat="39.217003" lon="-6.997884"><ele>435.5</ele><time>2015-01-01T14:00:00Z</time></trkpt><trkpt lat="39.216878" lon="-6.998045"><ele>433.6</ele><time>2015-01-01T14:00:20Z</time></trkpt><trkpt lat="39.216720" lon="-6.998264"><ele>432.5</ele><time>2015-01-01T14:00:40Z</time></trkpt><trkpt lat="39.216605" lon="-6.998406"><ele>430.8</ele><time>2015-01-01T14:01:00Z</time></trkpt><trkpt lat="39.216547" lon="-6.998454"><ele>429.9</ele><time>2015-01-01T14:01:20Z</time></trkpt><trkpt lat="39.216452" lon="-6.998550"><ele>427.7</ele><time>2015-01-01T14:01:40Z</time></trkpt><trkpt lat="39.216301" lon="-6.998652"><ele>424.7</ele><time>2015-01-01T14:02:00Z</time></trkpt><trkpt lat="39.216224" lon="-6.998675"><ele>423.8</ele><time>2015-01-01T14:02:20Z</time></trkpt><trkpt lat="39.216164" lon="-6.998694"><ele>422.9</ele><time>2015-01-01T14:02:40Z</time></trkpt><trkpt lat="39.216087" lon="-6.998693"><ele>422.4</ele><time>2015-01-01T14:03:00Z</time></trkpt><trkpt lat="39.216033" lon="-6.998695"><ele>421.9</ele><time>2015-01-01T14:03:20Z</time></trkpt><trkpt lat="39.215972" lon="-6.998688"><ele>421.6</ele><time>2015-01-01T14:03:40Z</time></trkpt><trkpt lat="39.215893" lon="-6.998670"><ele>421.4</ele><time>2015-01-01T14:04:00Z</time></trkpt><trkpt lat="39.215726" lon="-6.998628"><ele>419.7</ele><time>2015-01-01T14:04:20Z</time></trkpt><trkpt lat="39.215539" lon="-6.998526"><ele>419.0</ele><time>2015-01-01T14:04:40Z</time></trkpt></trkseg></trk></gpx>